Adams, Nebraska
Current Conditions -  °F | °C
As of 8:35 PM on Thursday 20 Nov 2014 (Local Time) from KBIE Reporting Station
Clear Clear  
Wind Chill: -5°   Ceiling: Unl
Heat Index: -5°   Visibility: 10mi
Dew Point: -8°   Wind: 3mph
Humidity: 77%   Direction: 110°ESE
Pressure: 30.2"   Gusts: NA
Location:  40.46°N, 96.51°W
Report Text: KBIE 210235Z AUTO 11003KT 10SM CLR M05/M08 A3020 RMK AO2 T10461080
Loading
Personal Weather Stations






























Interactive Weather Map New forecast layout! Learn more

10-Day Weather Forecast

Advertisements
Track Severe Weather on mobile